createdAt,value
2018-02-08T00:00:19.401Z,7.1
2018-02-08T00:01:21.154Z,7.1
2018-02-08T00:02:22.859Z,7.0
2018-02-08T00:03:24.552Z,7.0
2018-02-08T00:04:26.248Z,7.0
2018-02-08T00:05:27.948Z,6.9
2018-02-08T00:06:29.657Z,6.9
2018-02-08T00:07:31.353Z,6.9
2018-02-08T00:08:33.054Z,6.8
2018-02-08T00:09:34.767Z,6.9
2018-02-08T00:10:36.471Z,6.8
2018-02-08T00:11:38.173Z,6.7
2018-02-08T00:12:39.875Z,6.8
2018-02-08T00:13:41.568Z,6.7
2018-02-08T00:14:43.258Z,6.7
2018-02-08T00:15:44.955Z,6.7
2018-02-08T00:16:46.640Z,6.7
2018-02-08T00:17:48.330Z,6.6
2018-02-08T00:18:50.034Z,6.6
2018-02-08T00:19:51.723Z,6.6
2018-02-08T00:20:53.434Z,6.6
2018-02-08T00:21:55.159Z,6.7
2018-02-08T00:22:56.859Z,6.6
2018-02-08T00:23:58.570Z,6.6
2018-02-08T00:25:00.293Z,6.6
2018-02-08T00:26:01.989Z,6.5
2018-02-08T00:27:03.710Z,6.5
2018-02-08T00:28:05.417Z,6.5
2018-02-08T00:29:07.095Z,6.5
2018-02-08T00:30:08.807Z,6.5
2018-02-08T00:31:10.531Z,6.6
2018-02-08T00:32:12.245Z,6.5
2018-02-08T00:33:13.961Z,6.5
2018-02-08T00:34:15.693Z,6.6
2018-02-08T00:35:17.378Z,6.5
2018-02-08T00:36:19.081Z,6.5
2018-02-08T00:37:20.862Z,6.5
2018-02-08T00:38:22.561Z,6.5
2018-02-08T00:39:24.262Z,6.5
2018-02-08T00:40:25.949Z,6.5
2018-02-08T00:41:27.638Z,6.5
2018-02-08T00:42:29.319Z,6.5
2018-02-08T00:43:31.026Z,6.4
2018-02-08T00:44:32.714Z,6.4
2018-02-08T00:45:34.410Z,6.3
2018-02-08T00:46:36.112Z,6.4
2018-02-08T00:47:37.790Z,6.4
2018-02-08T00:48:39.469Z,6.4
2018-02-08T00:49:41.166Z,6.3
2018-02-08T00:50:42.871Z,6.3
2018-02-08T00:51:44.560Z,6.4
2018-02-08T00:52:46.248Z,6.3
2018-02-08T00:53:47.940Z,6.3
2018-02-08T00:54:49.629Z,6.4
2018-02-08T00:55:51.318Z,6.3
2018-02-08T00:56:53.006Z,6.3
2018-02-08T00:57:54.703Z,6.4
2018-02-08T00:58:56.378Z,6.4
2018-02-08T00:59:58.059Z,6.4
2018-02-08T01:00:59.751Z,6.4
2018-02-08T01:02:01.431Z,6.4
2018-02-08T01:03:03.133Z,6.4
2018-02-08T01:04:04.836Z,6.3
2018-02-08T01:05:06.549Z,6.3
2018-02-08T01:06:08.243Z,6.2
2018-02-08T01:07:09.972Z,6.2
2018-02-08T01:08:11.657Z,6.1
2018-02-08T01:09:13.408Z,6.2
2018-02-08T01:10:15.108Z,6.2
2018-02-08T01:11:16.820Z,6.1
2018-02-08T01:12:18.503Z,6.2
2018-02-08T01:13:20.262Z,6.1
2018-02-08T01:14:21.949Z,6.2
2018-02-08T01:15:23.656Z,6.1
2018-02-08T01:16:25.354Z,6.1
2018-02-08T01:17:27.040Z,6.1
2018-02-08T01:18:28.724Z,6.1
2018-02-08T01:19:30.440Z,6.0
2018-02-08T01:20:32.133Z,5.9
2018-02-08T01:21:33.834Z,5.9
2018-02-08T01:22:35.548Z,6.0
2018-02-08T01:23:37.234Z,5.9
2018-02-08T01:24:38.947Z,6.0
2018-02-08T01:25:40.645Z,6.0
2018-02-08T01:26:42.334Z,5.9
2018-02-08T01:27:44.023Z,5.9
2018-02-08T01:28:45.754Z,5.9
2018-02-08T01:29:47.501Z,5.8
2018-02-08T01:30:49.155Z,5.8
2018-02-08T01:31:50.836Z,5.9
2018-02-08T01:32:52.564Z,5.9
2018-02-08T01:33:54.251Z,5.8
2018-02-08T01:34:56.005Z,5.9
2018-02-08T01:35:57.711Z,5.8
2018-02-08T01:36:59.403Z,5.7
2018-02-08T01:38:01.097Z,5.8
2018-02-08T01:39:02.781Z,5.8
2018-02-08T01:40:04.485Z,5.8
2018-02-08T01:41:06.179Z,5.7
2018-02-08T01:42:07.881Z,5.7
2018-02-08T01:43:09.572Z,5.7
2018-02-08T01:44:11.273Z,5.8
2018-02-08T01:45:12.957Z,5.8
2018-02-08T01:46:14.661Z,5.7
2018-02-08T01:47:16.334Z,5.7
2018-02-08T01:48:18.036Z,5.7
2018-02-08T01:49:19.719Z,5.7
2018-02-08T01:50:21.440Z,5.7
2018-02-08T01:51:23.110Z,5.7
2018-02-08T01:52:24.776Z,5.6
2018-02-08T01:53:26.490Z,5.7
2018-02-08T01:54:28.174Z,5.8
2018-02-08T01:55:29.880Z,5.7
2018-02-08T01:56:31.571Z,5.7
2018-02-08T01:57:33.374Z,5.7
2018-02-08T01:58:35.061Z,5.6
2018-02-08T01:59:36.786Z,5.6
2018-02-08T02:00:38.426Z,5.6
2018-02-08T02:01:40.139Z,5.6
2018-02-08T02:02:41.861Z,5.6
2018-02-08T02:03:43.544Z,5.6
2018-02-08T02:04:45.249Z,5.5
2018-02-08T02:05:46.939Z,5.6
2018-02-08T02:06:48.643Z,5.5
2018-02-08T02:07:50.338Z,5.5
2018-02-08T02:08:52.037Z,5.6
2018-02-08T02:09:53.737Z,5.5
2018-02-08T02:10:55.421Z,5.4
2018-02-08T02:11:57.106Z,5.4
2018-02-08T02:12:58.799Z,5.5
2018-02-08T02:14:00.490Z,5.5
2018-02-08T02:15:02.190Z,5.3
2018-02-08T02:16:03.871Z,5.6
2018-02-08T02:17:05.594Z,5.5
2018-02-08T02:18:07.304Z,5.5
2018-02-08T02:19:09.005Z,5.4
2018-02-08T02:20:10.696Z,5.5
2018-02-08T02:21:12.390Z,5.4
2018-02-08T02:22:14.084Z,5.4
2018-02-08T02:23:15.779Z,5.4
2018-02-08T02:24:17.478Z,5.4
2018-02-08T02:25:19.172Z,5.4
2018-02-08T02:26:20.878Z,5.3
2018-02-08T02:27:22.558Z,5.5
2018-02-08T02:28:24.261Z,5.3
2018-02-08T02:29:25.950Z,5.3
2018-02-08T02:30:27.643Z,5.4
2018-02-08T02:31:29.344Z,5.4
2018-02-08T02:32:31.057Z,5.4
2018-02-08T02:33:32.755Z,5.4
2018-02-08T02:34:34.453Z,5.4
2018-02-08T02:35:36.159Z,5.4
2018-02-08T02:36:37.862Z,5.3
2018-02-08T02:37:39.550Z,5.3
2018-02-08T02:38:41.262Z,5.3
2018-02-08T02:39:42.946Z,5.4
2018-02-08T02:40:44.673Z,5.5
2018-02-08T02:41:46.390Z,5.6
2018-02-08T02:42:48.085Z,5.5
2018-02-08T02:43:49.766Z,5.6
2018-02-08T02:44:51.467Z,5.6
2018-02-08T02:45:53.149Z,5.6
2018-02-08T02:46:54.849Z,5.7
2018-02-08T02:47:56.548Z,5.6
2018-02-08T02:48:58.236Z,5.6
2018-02-08T02:49:59.906Z,5.5
2018-02-08T02:51:01.614Z,5.6
2018-02-08T02:52:03.313Z,5.6
2018-02-08T02:53:05.004Z,5.6
2018-02-08T02:54:06.703Z,5.5
2018-02-08T02:55:08.431Z,5.5
2018-02-08T02:56:10.123Z,5.5
2018-02-08T02:57:11.840Z,5.5
2018-02-08T02:58:13.537Z,5.5
2018-02-08T02:59:15.240Z,5.5
2018-02-08T03:00:16.927Z,5.5
2018-02-08T03:01:18.630Z,5.5
2018-02-08T03:02:20.326Z,5.5
2018-02-08T03:03:22.021Z,5.4
2018-02-08T03:04:23.726Z,5.5
2018-02-08T03:05:25.430Z,5.4
2018-02-08T03:06:27.131Z,5.4
2018-02-08T03:07:28.846Z,5.3
2018-02-08T03:08:30.557Z,5.3
2018-02-08T03:09:32.242Z,5.3
2018-02-08T03:10:33.931Z,5.3
2018-02-08T03:11:35.647Z,5.3
2018-02-08T03:12:37.339Z,5.3
2018-02-08T03:13:39.024Z,5.3
2018-02-08T03:14:40.703Z,5.2
2018-02-08T03:15:42.394Z,5.2
2018-02-08T03:16:44.072Z,5.3
2018-02-08T03:17:45.749Z,5.2
2018-02-08T03:18:47.477Z,5.2
2018-02-08T03:19:49.164Z,5.2
2018-02-08T03:20:50.864Z,5.3
2018-02-08T03:21:52.550Z,5.2
2018-02-08T03:22:54.248Z,5.2
2018-02-08T03:23:55.929Z,5.2
2018-02-08T03:24:57.612Z,5.2
2018-02-08T03:25:59.327Z,5.2
2018-02-08T03:27:01.056Z,5.1
2018-02-08T03:28:02.762Z,5.1
2018-02-08T03:29:04.477Z,5.0
2018-02-08T03:30:06.192Z,5.0
2018-02-08T03:31:07.892Z,5.0
2018-02-08T03:32:09.614Z,5.0
2018-02-08T03:33:11.307Z,5.0
2018-02-08T03:34:13.028Z,5.0
2018-02-08T03:35:14.735Z,5.0
2018-02-08T03:36:16.423Z,4.9
2018-02-08T03:37:18.119Z,5.0
2018-02-08T03:38:19.822Z,5.0
2018-02-08T03:39:21.522Z,4.9
2018-02-08T03:40:23.264Z,4.9
2018-02-08T03:41:24.991Z,4.9
2018-02-08T03:42:26.683Z,4.9
2018-02-08T03:43:28.373Z,4.9
2018-02-08T03:44:30.083Z,4.9
2018-02-08T03:45:31.771Z,4.8
2018-02-08T03:46:34.324Z,4.9
2018-02-08T03:47:36.017Z,4.8
2018-02-08T03:48:37.688Z,4.8
2018-02-08T03:49:39.418Z,4.8
2018-02-08T03:50:41.123Z,4.8
2018-02-08T03:51:42.803Z,4.8
2018-02-08T03:52:44.498Z,4.9
2018-02-08T03:53:46.193Z,4.8
2018-02-08T03:54:47.883Z,4.8
2018-02-08T03:55:49.611Z,4.8
2018-02-08T03:56:51.294Z,4.9
2018-02-08T03:57:53.025Z,4.8
2018-02-08T03:58:54.725Z,4.8
2018-02-08T03:59:56.431Z,4.7
2018-02-08T04:00:58.108Z,4.7
2018-02-08T04:01:59.885Z,4.8
2018-02-08T04:03:01.566Z,4.6
2018-02-08T04:04:03.264Z,4.7
2018-02-08T04:05:04.954Z,4.8
2018-02-08T04:06:06.642Z,4.8
2018-02-08T04:07:08.324Z,4.7
2018-02-08T04:08:10.068Z,4.8
2018-02-08T04:09:11.747Z,4.7
2018-02-08T04:10:13.447Z,4.8
2018-02-08T04:11:15.140Z,4.8
2018-02-08T04:12:16.821Z,4.8
2018-02-08T04:13:18.513Z,4.7
2018-02-08T04:14:20.236Z,4.7
2018-02-08T04:15:21.899Z,4.8
2018-02-08T04:16:23.606Z,4.7
2018-02-08T04:17:25.322Z,4.7
2018-02-08T04:18:27.049Z,4.6
2018-02-08T04:19:28.741Z,4.6
2018-02-08T04:20:30.436Z,4.6
2018-02-08T04:21:32.125Z,4.6
2018-02-08T04:22:33.816Z,4.6
2018-02-08T04:23:35.517Z,4.5
2018-02-08T04:24:37.214Z,4.5
2018-02-08T04:25:38.905Z,4.6
2018-02-08T04:26:40.590Z,4.6
2018-02-08T04:27:42.289Z,4.5
2018-02-08T04:28:43.978Z,4.6
2018-02-08T04:29:45.677Z,4.6
2018-02-08T04:30:47.373Z,4.5
2018-02-08T04:31:49.092Z,4.5
2018-02-08T04:32:50.786Z,4.5
2018-02-08T04:33:52.489Z,4.5
2018-02-08T04:34:54.158Z,4.5
2018-02-08T04:35:55.865Z,4.5
2018-02-08T04:36:57.558Z,4.4
2018-02-08T04:37:59.257Z,4.4
2018-02-08T04:39:00.939Z,4.4
2018-02-08T04:40:02.633Z,4.6
2018-02-08T04:41:04.321Z,4.5
2018-02-08T04:42:06.006Z,4.5
2018-02-08T04:43:07.701Z,4.5
2018-02-08T04:44:09.393Z,4.4
2018-02-08T04:45:11.095Z,4.4
2018-02-08T04:46:12.834Z,4.4
2018-02-08T04:47:14.520Z,4.4
2018-02-08T04:48:16.214Z,4.4
2018-02-08T04:49:17.909Z,4.4
2018-02-08T04:50:19.593Z,4.4
2018-02-08T04:51:21.273Z,4.4
2018-02-08T04:52:22.973Z,4.4
2018-02-08T04:53:24.640Z,4.4
2018-02-08T04:54:26.329Z,4.4
2018-02-08T04:55:28.021Z,4.4
2018-02-08T04:56:29.724Z,4.4
2018-02-08T04:57:31.413Z,4.5
2018-02-08T04:58:33.122Z,4.4
2018-02-08T04:59:34.805Z,4.4
2018-02-08T05:00:36.506Z,4.4
2018-02-08T05:01:38.186Z,4.4
2018-02-08T05:02:39.903Z,4.4
2018-02-08T05:03:41.639Z,4.4
2018-02-08T05:04:43.323Z,4.4
2018-02-08T05:05:45.005Z,4.4
2018-02-08T05:06:46.708Z,4.4
2018-02-08T05:07:48.391Z,4.4
2018-02-08T05:08:50.072Z,4.4
2018-02-08T05:09:51.756Z,4.4
2018-02-08T05:10:53.447Z,4.4
2018-02-08T05:11:55.153Z,4.4
2018-02-08T05:12:56.862Z,4.4
2018-02-08T05:13:58.584Z,4.4
2018-02-08T05:15:00.283Z,4.4
2018-02-08T05:16:01.969Z,4.4
2018-02-08T05:17:03.661Z,4.4
2018-02-08T05:18:05.361Z,4.4
2018-02-08T05:19:07.073Z,4.3
2018-02-08T05:20:08.763Z,4.3
2018-02-08T05:21:10.449Z,4.3
2018-02-08T05:22:12.160Z,4.2
2018-02-08T05:23:13.860Z,4.2
2018-02-08T05:24:15.551Z,4.1
2018-02-08T05:25:17.250Z,4.1
2018-02-08T05:26:18.933Z,4.1
2018-02-08T05:27:20.690Z,4.0
2018-02-08T05:28:22.338Z,4.1
2018-02-08T05:29:24.013Z,4.1
2018-02-08T05:30:25.719Z,4.1
2018-02-08T05:31:27.387Z,4.1
2018-02-08T05:32:29.091Z,4.0
2018-02-08T05:33:30.803Z,4.1
2018-02-08T05:34:32.488Z,4.2
2018-02-08T05:35:34.194Z,4.2
2018-02-08T05:36:35.889Z,4.2
2018-02-08T05:37:37.573Z,4.3
2018-02-08T05:38:39.253Z,4.4
2018-02-08T05:39:40.961Z,4.4
2018-02-08T05:40:42.647Z,4.3
2018-02-08T05:41:44.342Z,4.2
2018-02-08T05:42:46.040Z,4.2
2018-02-08T05:43:47.747Z,4.2
2018-02-08T05:44:49.426Z,4.2
2018-02-08T05:45:51.125Z,4.1
2018-02-08T05:46:52.823Z,4.0
2018-02-08T05:47:54.523Z,4.1
2018-02-08T05:48:56.222Z,4.0
2018-02-08T05:49:57.918Z,4.0
2018-02-08T05:50:59.610Z,4.1
2018-02-08T05:52:01.304Z,4.0
2018-02-08T05:53:02.988Z,4.0
2018-02-08T05:54:04.674Z,3.9
2018-02-08T05:55:06.384Z,3.9
2018-02-08T05:56:08.091Z,4.0
2018-02-08T05:57:09.802Z,3.9
2018-02-08T05:58:11.477Z,3.9
2018-02-08T05:59:13.157Z,3.9
2018-02-08T06:00:14.853Z,3.8
2018-02-08T06:01:16.552Z,3.8
2018-02-08T06:02:18.248Z,3.7
2018-02-08T06:03:19.948Z,3.7
2018-02-08T06:04:21.639Z,3.9
2018-02-08T06:05:23.331Z,3.9
2018-02-08T06:06:25.026Z,3.8
2018-02-08T06:07:26.716Z,4.0
2018-02-08T06:08:28.417Z,3.8
2018-02-08T06:09:30.115Z,3.9
2018-02-08T06:10:32.291Z,3.9
2018-02-08T06:11:33.973Z,3.9
2018-02-08T06:12:35.783Z,3.9
2018-02-08T06:13:37.439Z,3.9
2018-02-08T06:14:39.361Z,3.9
2018-02-08T06:15:41.045Z,3.7
2018-02-08T06:16:42.732Z,3.8
2018-02-08T06:17:44.426Z,3.8
2018-02-08T06:18:46.118Z,3.7
2018-02-08T06:19:47.814Z,3.7
2018-02-08T06:20:49.493Z,3.7
2018-02-08T06:21:51.196Z,3.6
2018-02-08T06:22:52.908Z,3.7
2018-02-08T06:23:54.590Z,3.6
2018-02-08T06:24:56.294Z,3.7
2018-02-08T06:25:57.986Z,3.7
2018-02-08T06:26:59.707Z,3.7
2018-02-08T06:28:01.412Z,3.7
2018-02-08T06:29:03.114Z,3.5
2018-02-08T06:30:04.803Z,3.5
2018-02-08T06:31:06.481Z,3.5
2018-02-08T06:32:08.184Z,3.6
2018-02-08T06:33:09.873Z,3.6
2018-02-08T06:34:11.554Z,3.6
2018-02-08T06:35:13.250Z,3.6
2018-02-08T06:36:14.946Z,3.6
2018-02-08T06:37:16.640Z,3.6
2018-02-08T06:38:18.330Z,3.6
2018-02-08T06:39:20.036Z,3.7
2018-02-08T06:40:21.741Z,3.7
2018-02-08T06:41:23.444Z,3.7
2018-02-08T06:42:25.141Z,3.6
2018-02-08T06:43:26.840Z,3.7
2018-02-08T06:44:28.539Z,3.7
2018-02-08T06:45:30.250Z,3.7
2018-02-08T06:46:31.941Z,3.7
2018-02-08T06:47:33.645Z,3.7
2018-02-08T06:48:35.349Z,3.7
2018-02-08T06:49:37.059Z,3.8
2018-02-08T06:50:38.750Z,3.8
2018-02-08T06:51:40.452Z,3.8
2018-02-08T06:52:42.131Z,3.9
2018-02-08T06:53:43.827Z,3.9
2018-02-08T06:54:45.533Z,3.9
2018-02-08T06:55:47.237Z,4.0
2018-02-08T06:56:48.934Z,4.0
2018-02-08T06:57:50.634Z,3.9
2018-02-08T06:58:52.333Z,4.0
2018-02-08T06:59:54.023Z,4.0
2018-02-08T07:00:56.795Z,4.1
2018-02-08T07:01:58.399Z,4.1
2018-02-08T07:03:00.094Z,4.1
2018-02-08T07:04:01.796Z,4.1
2018-02-08T07:05:03.502Z,4.0
2018-02-08T07:06:05.216Z,4.0
2018-02-08T07:07:06.924Z,4.0
2018-02-08T07:08:08.620Z,4.1
2018-02-08T07:09:10.326Z,4.0
2018-02-08T07:10:12.006Z,4.1
2018-02-08T07:11:13.706Z,4.1
2018-02-08T07:12:16.009Z,4.1
2018-02-08T07:13:17.729Z,4.1
2018-02-08T07:14:19.416Z,4.1
2018-02-08T07:15:21.109Z,4.1
2018-02-08T07:16:22.801Z,4.1
2018-02-08T07:17:24.496Z,4.1
2018-02-08T07:18:26.204Z,4.1
2018-02-08T07:19:27.949Z,4.1
2018-02-08T07:20:29.665Z,4.1
2018-02-08T07:21:31.363Z,4.2
2018-02-08T07:22:33.059Z,4.2
2018-02-08T07:23:34.740Z,4.1
2018-02-08T07:24:36.447Z,4.1
2018-02-08T07:25:38.141Z,4.1
2018-02-08T07:26:39.846Z,4.0
2018-02-08T07:27:41.531Z,4.0
2018-02-08T07:28:43.217Z,4.0
2018-02-08T07:29:44.903Z,4.1
2018-02-08T07:30:46.605Z,4.1
2018-02-08T07:31:48.310Z,4.2
2018-02-08T07:32:50.004Z,4.2
2018-02-08T07:33:51.727Z,4.2
2018-02-08T07:34:53.445Z,4.3
2018-02-08T07:35:55.147Z,4.3
2018-02-08T07:36:56.845Z,4.3
2018-02-08T07:37:58.572Z,4.4
2018-02-08T07:39:00.279Z,4.4
2018-02-08T07:40:01.960Z,4.4
2018-02-08T07:41:03.658Z,4.4
2018-02-08T07:42:05.354Z,4.4
2018-02-08T07:43:07.056Z,4.5
2018-02-08T07:44:08.744Z,4.5
2018-02-08T07:45:10.435Z,4.5
2018-02-08T07:46:12.131Z,4.5
2018-02-08T07:47:13.813Z,4.6
2018-02-08T07:48:15.497Z,4.5
2018-02-08T07:49:17.189Z,4.6
2018-02-08T07:50:18.896Z,4.6
2018-02-08T07:51:20.594Z,4.6
2018-02-08T07:52:22.302Z,4.8
2018-02-08T07:53:24.002Z,4.7
2018-02-08T07:54:25.690Z,4.7
2018-02-08T07:55:28.666Z,4.8
2018-02-08T07:56:30.370Z,4.7
2018-02-08T07:57:32.075Z,4.8
2018-02-08T07:58:33.772Z,4.7
2018-02-08T07:59:35.497Z,4.7
2018-02-08T08:00:37.212Z,4.8
2018-02-08T08:01:38.900Z,4.9
2018-02-08T08:02:40.601Z,4.8
2018-02-08T08:03:42.305Z,4.9
2018-02-08T08:04:44.001Z,4.9
2018-02-08T08:05:45.723Z,5.0
2018-02-08T08:06:47.418Z,5.0
2018-02-08T08:07:49.119Z,5.1
2018-02-08T08:08:50.814Z,5.2
2018-02-08T08:09:52.517Z,5.1
2018-02-08T08:10:54.233Z,5.2
2018-02-08T08:11:55.920Z,5.2
2018-02-08T08:12:57.612Z,5.3
2018-02-08T08:13:59.322Z,5.3
2018-02-08T08:15:01.010Z,5.4
2018-02-08T08:16:02.720Z,5.4
2018-02-08T08:17:04.475Z,5.5
2018-02-08T08:18:06.191Z,5.4
2018-02-08T08:19:07.878Z,5.5
2018-02-08T08:20:09.576Z,5.6
2018-02-08T08:21:11.273Z,5.7
2018-02-08T08:22:13.022Z,5.8
2018-02-08T08:23:14.717Z,5.9
2018-02-08T08:24:16.440Z,6.0
2018-02-08T08:25:18.139Z,6.0
2018-02-08T08:26:19.841Z,6.0
2018-02-08T08:27:21.533Z,6.1
2018-02-08T08:28:23.253Z,6.1
2018-02-08T08:29:24.953Z,6.2
2018-02-08T08:30:26.653Z,6.2
2018-02-08T08:31:28.367Z,6.3
2018-02-08T08:32:30.062Z,6.4
2018-02-08T08:33:31.774Z,6.5
2018-02-08T08:34:33.470Z,6.5
2018-02-08T08:35:35.176Z,6.5
2018-02-08T08:36:36.870Z,6.5
2018-02-08T08:37:38.564Z,6.5
2018-02-08T08:38:40.268Z,6.5
2018-02-08T08:39:41.950Z,6.5
2018-02-08T08:40:43.640Z,6.5
2018-02-08T08:41:45.345Z,6.4
2018-02-08T08:42:47.084Z,6.5
2018-02-08T08:43:48.819Z,6.4
2018-02-08T08:44:50.538Z,6.4
2018-02-08T08:45:52.259Z,6.4
2018-02-08T08:46:53.957Z,6.4
2018-02-08T08:47:55.664Z,6.4
2018-02-08T08:48:57.373Z,6.4
2018-02-08T08:49:59.050Z,6.6
2018-02-08T08:51:00.751Z,6.5
2018-02-08T08:52:02.450Z,6.5
2018-02-08T08:53:04.154Z,6.6
2018-02-08T08:54:05.886Z,6.7
2018-02-08T08:55:07.908Z,6.9
2018-02-08T08:56:09.769Z,6.9
2018-02-08T08:57:11.531Z,6.8
2018-02-08T08:58:13.381Z,7.0
2018-02-08T08:59:15.294Z,7.2
2018-02-08T09:00:17.198Z,7.2
2018-02-08T09:01:18.955Z,7.4
2018-02-08T09:02:20.672Z,7.5
2018-02-08T09:03:23.003Z,7.6
2018-02-08T09:04:24.690Z,7.7
2018-02-08T09:05:26.383Z,7.9
2018-02-08T09:06:28.069Z,7.8
2018-02-08T09:07:29.764Z,7.9
2018-02-08T09:08:31.465Z,8.1
2018-02-08T09:09:33.166Z,8.2
2018-02-08T09:10:34.863Z,8.2
2018-02-08T09:11:36.566Z,8.3
2018-02-08T09:12:38.270Z,8.4
2018-02-08T09:13:39.970Z,8.6
2018-02-08T09:14:41.674Z,8.6
2018-02-08T09:15:44.370Z,8.6
2018-02-08T09:16:46.848Z,8.7
2018-02-08T09:18:28.801Z,8.7
2018-02-08T09:19:30.614Z,8.6
2018-02-08T09:20:32.358Z,8.7
2018-02-08T09:22:53.487Z,8.7
2018-02-08T09:23:55.282Z,8.8
2018-02-08T09:24:56.980Z,8.8
2018-02-08T09:25:58.783Z,8.7
2018-02-08T09:27:00.493Z,8.7
2018-02-08T09:28:02.204Z,8.7
2018-02-08T09:29:03.910Z,8.9
2018-02-08T09:30:05.614Z,9.0
2018-02-08T09:31:07.320Z,9.0
2018-02-08T09:32:09.075Z,9.0
2018-02-08T09:33:10.797Z,9.0
2018-02-08T09:34:12.494Z,9.1
2018-02-08T09:35:14.221Z,9.2
2018-02-08T09:36:15.924Z,9.3
2018-02-08T09:37:17.765Z,9.4
2018-02-08T09:38:20.505Z,9.6
2018-02-08T09:39:22.207Z,9.5
2018-02-08T09:40:23.915Z,9.6
2018-02-08T09:41:25.634Z,9.7
2018-02-08T09:42:27.358Z,9.8
2018-02-08T09:43:29.101Z,9.8
2018-02-08T09:44:30.830Z,9.9
2018-02-08T09:45:32.566Z,10.0
2018-02-08T09:46:34.318Z,9.9
2018-02-08T09:47:36.050Z,10.0
2018-02-08T09:48:38.029Z,9.8
2018-02-08T09:49:39.756Z,10.0
2018-02-08T09:51:33.897Z,10.1
2018-02-08T09:52:35.630Z,10.2
2018-02-08T09:53:37.361Z,10.4
2018-02-08T09:54:42.409Z,10.2
2018-02-08T09:55:48.412Z,10.5
2018-02-08T09:56:50.004Z,10.5
2018-02-08T09:57:51.740Z,10.6
2018-02-08T09:58:53.468Z,10.6
2018-02-08T09:59:55.175Z,10.6
2018-02-08T10:00:57.335Z,10.6
2018-02-08T10:01:58.941Z,10.5
2018-02-08T10:03:00.663Z,10.7
2018-02-08T10:04:02.459Z,10.7
2018-02-08T10:05:04.189Z,10.6
2018-02-08T10:06:05.900Z,10.4
2018-02-08T10:07:07.634Z,10.4
2018-02-08T10:08:09.346Z,10.5
2018-02-08T10:09:11.069Z,10.5
2018-02-08T10:10:12.835Z,10.5
2018-02-08T10:11:14.554Z,10.6
2018-02-08T10:12:16.255Z,10.8
2018-02-08T10:13:17.961Z,11.0
2018-02-08T10:14:19.920Z,11.0
2018-02-08T10:15:21.704Z,10.7
2018-02-08T10:16:23.517Z,10.7
2018-02-08T10:17:25.279Z,10.5
2018-02-08T10:18:27.234Z,10.5
2018-02-08T10:19:29.148Z,10.6
2018-02-08T10:20:30.907Z,10.5
2018-02-08T10:21:32.665Z,10.7
2018-02-08T10:22:34.438Z,10.7
2018-02-08T10:23:36.806Z,10.8
2018-02-08T10:24:38.583Z,10.8
2018-02-08T10:25:40.435Z,11.0
2018-02-08T10:26:42.140Z,11.1
2018-02-08T10:27:44.006Z,11.3
2018-02-08T10:28:45.772Z,11.5
2018-02-08T10:29:47.630Z,11.5
2018-02-08T10:30:49.468Z,11.5
2018-02-08T10:31:51.310Z,11.7
2018-02-08T10:32:53.023Z,11.4
2018-02-08T10:33:54.838Z,11.3
2018-02-08T10:34:56.670Z,11.7
2018-02-08T10:35:58.467Z,12.3
2018-02-08T10:37:00.261Z,13.4
2018-02-08T10:38:02.085Z,14.7
2018-02-08T10:39:04.266Z,14.4
2018-02-08T10:40:06.003Z,13.9
2018-02-08T10:41:07.831Z,14.6
2018-02-08T10:42:09.658Z,14.4
2018-02-08T10:43:11.467Z,12.7
2018-02-08T10:44:13.304Z,13.0
2018-02-08T10:45:15.235Z,12.4
2018-02-08T10:46:17.076Z,11.9
2018-02-08T10:47:18.920Z,11.9
2018-02-08T10:48:20.708Z,11.2
2018-02-08T10:49:22.519Z,11.5
2018-02-08T10:50:24.267Z,12.0
2018-02-08T10:51:26.079Z,12.6
2018-02-08T10:52:27.874Z,13.0
2018-02-08T10:53:29.638Z,13.7
2018-02-08T10:54:31.471Z,14.4
2018-02-08T10:55:33.326Z,14.5
2018-02-08T10:56:35.104Z,13.9
2018-02-08T10:57:36.938Z,13.5
2018-02-08T10:58:38.684Z,13.2
2018-02-08T10:59:40.473Z,13.4
2018-02-08T11:00:42.272Z,13.0
2018-02-08T11:01:44.115Z,12.9
2018-02-08T11:02:45.959Z,12.9
2018-02-08T11:03:47.891Z,13.2
2018-02-08T11:04:49.683Z,12.6
2018-02-08T11:05:51.527Z,12.1
2018-02-08T11:06:53.312Z,11.7
2018-02-08T11:07:55.082Z,11.8
2018-02-08T11:08:56.900Z,11.4
2018-02-08T11:09:58.702Z,11.3
2018-02-08T11:11:00.509Z,11.8
2018-02-08T11:12:02.380Z,12.0
2018-02-08T11:13:04.090Z,12.6
2018-02-08T11:14:05.814Z,12.8
2018-02-08T11:15:07.654Z,13.3
2018-02-08T11:16:09.371Z,13.4
2018-02-08T11:17:11.156Z,14.0
2018-02-08T11:18:12.961Z,14.7
2018-02-08T11:19:14.784Z,15.4
2018-02-08T11:20:16.576Z,15.4
2018-02-08T11:21:18.467Z,15.3
2018-02-08T11:22:20.293Z,15.7
2018-02-08T11:23:22.101Z,15.8
2018-02-08T11:24:23.886Z,15.6
2018-02-08T11:25:25.703Z,15.6
2018-02-08T11:26:27.492Z,15.6
2018-02-08T11:27:29.227Z,16.6
2018-02-08T11:28:30.952Z,16.6
2018-02-08T11:29:32.731Z,16.3
2018-02-08T11:30:34.664Z,16.3
2018-02-08T11:31:36.462Z,16.2
2018-02-08T11:32:38.298Z,15.7
2018-02-08T11:33:40.139Z,15.4
2018-02-08T11:34:41.981Z,15.4
2018-02-08T11:35:43.793Z,15.2
2018-02-08T11:36:45.602Z,15.4
2018-02-08T11:37:47.334Z,15.9
2018-02-08T11:38:49.172Z,15.8
2018-02-08T11:39:50.960Z,15.1
2018-02-08T11:40:53.463Z,15.4
2018-02-08T11:41:55.270Z,15.1
2018-02-08T11:42:57.101Z,15.2
2018-02-08T11:43:58.947Z,15.2
2018-02-08T11:45:00.755Z,15.5
2018-02-08T11:46:02.693Z,15.6
2018-02-08T11:47:04.513Z,15.4
2018-02-08T11:48:06.372Z,15.0
2018-02-08T11:49:08.214Z,14.6
2018-02-08T11:50:10.115Z,14.5
2018-02-08T11:51:14.435Z,15.5
2018-02-08T11:52:16.253Z,14.9
2018-02-08T11:53:18.081Z,15.4
2018-02-08T11:54:19.932Z,15.2
2018-02-08T11:55:21.750Z,14.7
2018-02-08T11:56:23.480Z,15.2
2018-02-08T11:57:25.237Z,15.8
2018-02-08T11:58:27.086Z,15.7
2018-02-08T11:59:28.871Z,16.0
2018-02-08T12:00:30.735Z,16.7
2018-02-08T12:01:32.462Z,16.1
2018-02-08T12:02:34.273Z,15.9
2018-02-08T12:03:35.997Z,15.5
2018-02-08T12:04:37.978Z,16.0
2018-02-08T12:05:39.725Z,16.4
2018-02-08T12:06:41.465Z,15.4
2018-02-08T12:07:43.239Z,15.5
2018-02-08T12:08:44.975Z,14.9
2018-02-08T12:09:46.863Z,15.2
2018-02-08T12:10:49.306Z,16.1
2018-02-08T12:11:50.733Z,16.2
2018-02-08T12:12:52.532Z,16.3
2018-02-08T12:13:54.355Z,15.9
2018-02-08T12:14:56.179Z,16.2
2018-02-08T12:15:58.019Z,16.7
2018-02-08T12:16:59.785Z,16.4
2018-02-08T12:18:01.717Z,16.9
2018-02-08T12:19:03.426Z,18.1
2018-02-08T12:20:05.330Z,18.9
2018-02-08T12:21:07.144Z,18.6
2018-02-08T12:22:08.909Z,16.2
2018-02-08T12:23:10.624Z,16.8
2018-02-08T12:24:12.358Z,17.3
2018-02-08T12:25:14.059Z,17.2
2018-02-08T12:26:15.774Z,16.6
2018-02-08T12:27:17.475Z,16.9
2018-02-08T12:28:19.200Z,16.9
2018-02-08T12:29:20.922Z,17.7
2018-02-08T12:30:22.624Z,17.5
2018-02-08T12:31:24.344Z,15.6
2018-02-08T12:32:26.072Z,14.1
2018-02-08T12:33:27.778Z,13.8
2018-02-08T12:34:29.519Z,15.3
2018-02-08T12:35:31.242Z,17.3
2018-02-08T12:36:32.965Z,17.5
2018-02-08T12:37:34.694Z,16.9
2018-02-08T12:38:36.428Z,15.7
2018-02-08T12:39:38.145Z,15.1
2018-02-08T12:40:39.867Z,14.7
2018-02-08T12:41:41.641Z,15.8
2018-02-08T12:42:43.341Z,16.2
2018-02-08T12:43:45.073Z,15.7
2018-02-08T12:44:46.803Z,15.0
2018-02-08T12:45:48.530Z,15.5
2018-02-08T12:46:50.262Z,16.0
2018-02-08T12:47:52.046Z,16.3
2018-02-08T12:48:53.789Z,16.3
2018-02-08T12:49:55.665Z,16.8
2018-02-08T12:50:57.379Z,16.4
2018-02-08T12:51:59.185Z,16.1
2018-02-08T12:53:00.984Z,16.3
2018-02-08T12:54:03.092Z,16.1
2018-02-08T12:55:04.885Z,16.5
2018-02-08T12:56:06.710Z,17.0
2018-02-08T12:57:08.458Z,16.6
2018-02-08T12:58:10.194Z,15.7
2018-02-08T12:59:11.969Z,15.7
2018-02-08T13:00:13.645Z,16.0
2018-02-08T13:04:26.654Z,15.0
2018-02-08T13:05:28.394Z,15.0
2018-02-08T13:06:30.182Z,15.4
2018-02-08T13:07:31.909Z,15.4
2018-02-08T13:08:33.626Z,15.6
2018-02-08T13:09:35.380Z,15.6
2018-02-08T13:10:37.154Z,15.7
2018-02-08T13:11:38.867Z,16.1
2018-02-08T13:12:40.605Z,15.7
2018-02-08T13:13:42.329Z,15.4
2018-02-08T13:14:44.048Z,15.1
2018-02-08T13:15:45.765Z,15.4
2018-02-08T13:16:47.479Z,15.2
2018-02-08T13:17:49.191Z,15.8
2018-02-08T13:18:50.958Z,16.2
2018-02-08T13:19:52.730Z,15.6
2018-02-08T13:20:54.482Z,15.4
2018-02-08T13:21:56.329Z,15.7
2018-02-08T13:22:58.048Z,15.4
2018-02-08T13:23:59.771Z,15.5
2018-02-08T13:25:01.495Z,15.7
2018-02-08T13:26:03.273Z,15.4
2018-02-08T13:27:05.018Z,15.4
2018-02-08T13:28:06.788Z,15.5
2018-02-08T13:29:08.524Z,15.4
2018-02-08T13:30:10.255Z,15.6
2018-02-08T13:31:11.980Z,15.4
2018-02-08T13:32:13.716Z,15.4
2018-02-08T13:33:15.426Z,15.3
2018-02-08T13:34:17.191Z,15.2
2018-02-08T13:35:18.917Z,15.4
2018-02-08T13:36:20.686Z,15.0
2018-02-08T13:37:22.416Z,14.8
2018-02-08T13:38:24.150Z,14.7
2018-02-08T13:39:25.994Z,14.9
2018-02-08T13:40:27.708Z,14.8
2018-02-08T13:41:29.430Z,14.7
2018-02-08T13:42:31.141Z,15.0
2018-02-08T13:43:33.138Z,15.0
2018-02-08T13:44:34.877Z,14.9
2018-02-08T13:45:36.724Z,15.0
2018-02-08T13:46:38.614Z,14.7
2018-02-08T13:47:40.382Z,14.5
2018-02-08T13:48:44.259Z,14.5
2018-02-08T13:49:45.709Z,14.7
2018-02-08T13:50:47.466Z,15.0
2018-02-08T13:51:49.226Z,14.9
2018-02-08T13:52:50.943Z,14.6
2018-02-08T13:53:52.679Z,14.6
2018-02-08T13:54:54.404Z,14.6
2018-02-08T13:55:56.175Z,14.7
2018-02-08T13:56:57.934Z,14.4
2018-02-08T13:57:59.659Z,14.7
2018-02-08T13:59:01.388Z,14.7
2018-02-08T14:00:03.095Z,15.2
2018-02-08T14:01:04.825Z,15.1
2018-02-08T14:02:06.560Z,14.6
2018-02-08T14:03:08.294Z,14.4
2018-02-08T14:04:10.020Z,14.6
2018-02-08T14:05:11.747Z,14.9
2018-02-08T14:06:13.468Z,15.0
2018-02-08T14:07:15.212Z,15.0